sensor_id;sensor_type;location;lat;lon;timestamp;temperature;humidity
28253;DHT22;15515;45.588;5.276;2022-07-01T05:03:46;17.40;99.90
28253;DHT22;15515;45.588;5.276;2022-07-01T05:06:13;17.70;99.90
28253;DHT22;15515;45.588;5.276;2022-07-01T05:08:40;17.70;99.90
28253;DHT22;15515;45.588;5.276;2022-07-01T05:11:07;17.80;99.90
28253;DHT22;15515;45.588;5.276;2022-07-01T05:13:34;17.70;99.90
28253;DHT22;15515;45.588;5.276;2022-07-01T05:16:02;17.80;99.90
28253;DHT22;15515;45.588;5.276;2022-07-01T05:18:30;17.80;99.90
28253;DHT22;15515;45.588;5.276;2022-07-01T05:21:15;17.90;99.90
28253;DHT22;15515;45.588;5.276;2022-07-01T05:24:01;17.90;99.90
28253;DHT22;15515;45.588;5.276;2022-07-01T05:26:28;17.80;99.90
28253;DHT22;15515;45.588;5.276;2022-07-01T05:28:55;17.80;99.90
28253;DHT22;15515;45.588;5.276;2022-07-01T05:31:22;17.70;99.90
28253;DHT22;15515;45.588;5.276;2022-07-01T05:33:50;17.70;99.90
28253;DHT22;15515;45.588;5.276;2022-07-01T05:36:17;17.70;99.90
28253;DHT22;15515;45.588;5.276;2022-07-01T05:38:48;17.70;99.90
28253;DHT22;15515;45.588;5.276;2022-07-01T05:41:21;17.70;99.90
28253;DHT22;15515;45.588;5.276;2022-07-01T05:44:09;17.70;99.90
28253;DHT22;15515;45.588;5.276;2022-07-01T05:46:45;17.70;99.90
28253;DHT22;15515;45.588;5.276;2022-07-01T05:49:21;17.70;99.90
28253;DHT22;15515;45.588;5.276;2022-07-01T05:51:50;17.70;99.90
28253;DHT22;15515;45.588;5.276;2022-07-01T05:54:21;17.70;99.90
28253;DHT22;15515;45.588;5.276;2022-07-01T05:57:00;17.80;99.90
28253;DHT22;15515;45.588;5.276;2022-07-01T05:59:29;17.80;99.90
28253;DHT22;15515;45.588;5.276;2022-07-01T06:01:58;17.90;99.90
28253;DHT22;15515;45.588;5.276;2022-07-01T06:04:29;18.00;99.90
28253;DHT22;15515;45.588;5.276;2022-07-01T06:06:56;18.10;99.90
28253;DHT22;15515;45.588;5.276;2022-07-01T06:09:23;18.20;99.90
28253;DHT22;15515;45.588;5.276;2022-07-01T06:11:50;18.20;99.90
28253;DHT22;15515;45.588;5.276;2022-07-01T06:14:17;18.30;99.90
28253;DHT22;15515;45.588;5.276;2022-07-01T06:16:44;18.30;99.90
28253;DHT22;15515;45.588;5.276;2022-07-01T06:19:11;18.30;99.90
28253;DHT22;15515;45.588;5.276;2022-07-01T06:21:38;18.40;99.90
28253;DHT22;15515;45.588;5.276;2022-07-01T06:24:08;18.60;99.90
28253;DHT22;15515;45.588;5.276;2022-07-01T06:26:42;18.80;99.90
28253;DHT22;15515;45.588;5.276;2022-07-01T06:29:09;19.00;99.90
28253;DHT22;15515;45.588;5.276;2022-07-01T06:31:36;19.00;99.90
28253;DHT22;15515;45.588;5.276;2022-07-01T06:34:12;19.20;99.90
28253;DHT22;15515;45.588;5.276;2022-07-01T06:36:40;19.50;99.90
28253;DHT22;15515;45.588;5.276;2022-07-01T06:39:07;19.60;99.90
28253;DHT22;15515;45.588;5.276;2022-07-01T06:41:35;19.60;99.90
28253;DHT22;15515;45.588;5.276;2022-07-01T06:44:02;19.80;99.90
28253;DHT22;15515;45.588;5.276;2022-07-01T06:46:31;19.90;99.90
28253;DHT22;15515;45.588;5.276;2022-07-01T06:48:59;19.90;99.90
28253;DHT22;15515;45.588;5.276;2022-07-01T06:51:26;20.00;99.90
28253;DHT22;15515;45.588;5.276;2022-07-01T06:53:54;20.10;99.90
28253;DHT22;15515;45.588;5.276;2022-07-01T06:56:21;20.10;99.90
28253;DHT22;15515;45.588;5.276;2022-07-01T06:58:48;20.20;99.90
28253;DHT22;15515;45.588;5.276;2022-07-01T07:01:16;20.30;99.90
28253;DHT22;15515;45.588;5.276;2022-07-01T07:03:43;20.30;99.90
28253;DHT22;15515;45.588;5.276;2022-07-01T07:06:10;20.30;99.20
28253;DHT22;15515;45.588;5.276;2022-07-01T07:08:37;20.20;99.40
28253;DHT22;15515;45.588;5.276;2022-07-01T07:11:05;20.30;99.90
28253;DHT22;15515;45.588;5.276;2022-07-01T07:13:34;20.30;97.50
28253;DHT22;15515;45.588;5.276;2022-07-01T07:16:02;20.40;96.60
28253;DHT22;15515;45.588;5.276;2022-07-01T07:18:29;20.80;95.90
28253;DHT22;15515;45.588;5.276;2022-07-01T07:20:56;20.80;94.40
28253;DHT22;15515;45.588;5.276;2022-07-01T07:23:25;21.00;93.60
28253;DHT22;15515;45.588;5.276;2022-07-01T07:25:52;21.20;93.10
28253;DHT22;15515;45.588;5.276;2022-07-01T07:28:19;21.20;93.10
28253;DHT22;15515;45.588;5.276;2022-07-01T07:30:46;21.40;92.30
28253;DHT22;15515;45.588;5.276;2022-07-01T07:33:13;21.50;91.40
28253;DHT22;15515;45.588;5.276;2022-07-01T07:35:40;21.60;91.30
28253;DHT22;15515;45.588;5.276;2022-07-01T07:38:07;21.50;91.70
28253;DHT22;15515;45.588;5.276;2022-07-01T07:40:35;21.80;91.30
28253;DHT22;15515;45.588;5.276;2022-07-01T07:43:02;21.90;90.40
28253;DHT22;15515;45.588;5.276;2022-07-01T07:45:30;22.00;88.80
28253;DHT22;15515;45.588;5.276;2022-07-01T07:47:58;22.00;87.10
28253;DHT22;15515;45.588;5.276;2022-07-01T07:50:27;22.10;87.30
28253;DHT22;15515;45.588;5.276;2022-07-01T07:52:54;22.10;85.90
28253;DHT22;15515;45.588;5.276;2022-07-01T07:55:21;22.10;85.00
28253;DHT22;15515;45.588;5.276;2022-07-01T07:57:49;22.40;83.30
28253;DHT22;15515;45.588;5.276;2022-07-01T08:00:16;22.60;82.80
28253;DHT22;15515;45.588;5.276;2022-07-01T08:02:43;22.70;80.90
28253;DHT22;15515;45.588;5.276;2022-07-01T08:05:10;22.50;80.40
28253;DHT22;15515;45.588;5.276;2022-07-01T08:07:40;22.40;82.40
28253;DHT22;15515;45.588;5.276;2022-07-01T08:10:09;22.50;81.80
28253;DHT22;15515;45.588;5.276;2022-07-01T08:12:36;22.70;79.40
28253;DHT22;15515;45.588;5.276;2022-07-01T08:15:04;23.00;78.10
28253;DHT22;15515;45.588;5.276;2022-07-01T08:17:32;23.10;77.70
28253;DHT22;15515;45.588;5.276;2022-07-01T08:19:59;23.40;76.50
28253;DHT22;15515;45.588;5.276;2022-07-01T08:22:27;23.70;74.30
28253;DHT22;15515;45.588;5.276;2022-07-01T08:24:54;23.90;73.30
28253;DHT22;15515;45.588;5.276;2022-07-01T08:27:21;23.60;73.30
28253;DHT22;15515;45.588;5.276;2022-07-01T08:29:49;23.30;75.90
28253;DHT22;15515;45.588;5.276;2022-07-01T08:32:16;23.00;82.60
28253;DHT22;15515;45.588;5.276;2022-07-01T08:34:43;22.70;82.00
28253;DHT22;15515;45.588;5.276;2022-07-01T08:37:10;22.40;86.20
28253;DHT22;15515;45.588;5.276;2022-07-01T08:39:37;22.20;83.30
28253;DHT22;15515;45.588;5.276;2022-07-01T08:42:06;22.30;87.30
28253;DHT22;15515;45.588;5.276;2022-07-01T08:44:33;22.40;86.90
28253;DHT22;15515;45.588;5.276;2022-07-01T08:47:02;22.40;88.30
28253;DHT22;15515;45.588;5.276;2022-07-01T08:49:30;22.80;86.60
28253;DHT22;15515;45.588;5.276;2022-07-01T08:51:57;23.10;84.70
28253;DHT22;15515;45.588;5.276;2022-07-01T08:54:25;23.00;84.90
28253;DHT22;15515;45.588;5.276;2022-07-01T08:56:52;22.80;84.30
28253;DHT22;15515;45.588;5.276;2022-07-01T08:59:26;23.10;90.40
28253;DHT22;15515;45.588;5.276;2022-07-01T09:01:58;23.60;87.80
28253;DHT22;15515;45.588;5.276;2022-07-01T09:04:27;24.00;83.30
28253;DHT22;15515;45.588;5.276;2022-07-01T09:07:07;23.90;79.40
28253;DHT22;15515;45.588;5.276;2022-07-01T09:09:39;23.50;80.40
28253;DHT22;15515;45.588;5.276;2022-07-01T09:12:08;23.20;78.90
28253;DHT22;15515;45.588;5.276;2022-07-01T09:14:36;23.00;83.60
28253;DHT22;15515;45.588;5.276;2022-07-01T09:17:05;22.90;85.00
28253;DHT22;15515;45.588;5.276;2022-07-01T09:19:35;22.80;85.60
28253;DHT22;15515;45.588;5.276;2022-07-01T09:22:04;22.70;81.70
28253;DHT22;15515;45.588;5.276;2022-07-01T09:24:37;22.60;86.20
28253;DHT22;15515;45.588;5.276;2022-07-01T09:27:08;22.50;80.80
28253;DHT22;15515;45.588;5.276;2022-07-01T09:29:50;23.00;79.80
28253;DHT22;15515;45.588;5.276;2022-07-01T09:32:22;23.60;83.70
28253;DHT22;15515;45.588;5.276;2022-07-01T09:34:52;23.80;83.10
28253;DHT22;15515;45.588;5.276;2022-07-01T09:37:22;24.00;81.60
28253;DHT22;15515;45.588;5.276;2022-07-01T09:39:53;24.40;76.60
28253;DHT22;15515;45.588;5.276;2022-07-01T09:42:22;24.80;75.90
28253;DHT22;15515;45.588;5.276;2022-07-01T09:45:06;24.40;70.70
28253;DHT22;15515;45.588;5.276;2022-07-01T09:47:35;24.40;71.00
28253;DHT22;15515;45.588;5.276;2022-07-01T09:50:04;24.90;73.10
28253;DHT22;15515;45.588;5.276;2022-07-01T09:52:32;25.10;69.00
28253;DHT22;15515;45.588;5.276;2022-07-01T09:54:59;24.90;66.80
28253;DHT22;15515;45.588;5.276;2022-07-01T09:57:26;25.20;68.90
28253;DHT22;15515;45.588;5.276;2022-07-01T09:59:53;25.50;68.20
28253;DHT22;15515;45.588;5.276;2022-07-01T10:02:22;25.20;64.00
28253;DHT22;15515;45.588;5.276;2022-07-01T10:04:56;25.50;66.00
28253;DHT22;15515;45.588;5.276;2022-07-01T10:12:59;24.80;63.00
28253;DHT22;15515;45.588;5.276;2022-07-01T10:15:28;24.60;63.80
28253;DHT22;15515;45.588;5.276;2022-07-01T10:17:55;24.90;64.40
28253;DHT22;15515;45.588;5.276;2022-07-01T10:20:27;25.30;63.20
28253;DHT22;15515;45.588;5.276;2022-07-01T10:23:02;25.70;62.50
28253;DHT22;15515;45.588;5.276;2022-07-01T10:28:25;25.50;64.70
28253;DHT22;15515;45.588;5.276;2022-07-01T10:31:00;25.90;63.70
28253;DHT22;15515;45.588;5.276;2022-07-01T10:35:55;26.00;60.70
28253;DHT22;15515;45.588;5.276;2022-07-01T10:38:31;26.00;60.90
28253;DHT22;15515;45.588;5.276;2022-07-01T10:40:58;26.30;59.60
28253;DHT22;15515;45.588;5.276;2022-07-01T10:43:37;26.10;58.50
28253;DHT22;15515;45.588;5.276;2022-07-01T10:46:04;26.20;59.00
28253;DHT22;15515;45.588;5.276;2022-07-01T10:48:33;26.80;58.20
28253;DHT22;15515;45.588;5.276;2022-07-01T10:51:01;26.80;57.30
28253;DHT22;15515;45.588;5.276;2022-07-01T10:53:54;26.40;57.60
28253;DHT22;15515;45.588;5.276;2022-07-01T10:56:38;26.20;58.30
28253;DHT22;15515;45.588;5.276;2022-07-01T10:59:06;26.30;58.50
28253;DHT22;15515;45.588;5.276;2022-07-01T11:01:34;27.00;57.90
28253;DHT22;15515;45.588;5.276;2022-07-01T11:04:01;27.10;57.10
28253;DHT22;15515;45.588;5.276;2022-07-01T11:06:29;26.70;56.60
28253;DHT22;15515;45.588;5.276;2022-07-01T11:08:58;26.50;56.20
28253;DHT22;15515;45.588;5.276;2022-07-01T11:11:25;26.20;56.70
28253;DHT22;15515;45.588;5.276;2022-07-01T11:13:57;25.90;57.10
28253;DHT22;15515;45.588;5.276;2022-07-01T11:16:24;25.80;57.90
28253;DHT22;15515;45.588;5.276;2022-07-01T11:18:51;25.70;57.30
28253;DHT22;15515;45.588;5.276;2022-07-01T11:21:19;26.00;56.80
28253;DHT22;15515;45.588;5.276;2022-07-01T11:23:54;26.50;54.90
28253;DHT22;15515;45.588;5.276;2022-07-01T11:26:23;27.00;53.50
28253;DHT22;15515;45.588;5.276;2022-07-01T11:28:50;27.60;52.60
28253;DHT22;15515;45.588;5.276;2022-07-01T11:31:32;28.00;52.30
28253;DHT22;15515;45.588;5.276;2022-07-01T11:33:59;28.40;50.70
28253;DHT22;15515;45.588;5.276;2022-07-01T11:36:26;27.80;50.60
28253;DHT22;15515;45.588;5.276;2022-07-01T11:39:12;27.70;50.90
28253;DHT22;15515;45.588;5.276;2022-07-01T11:41:59;27.70;50.00
28253;DHT22;15515;45.588;5.276;2022-07-01T11:44:36;27.20;51.00
28253;DHT22;15515;45.588;5.276;2022-07-01T11:47:07;27.60;50.60
28253;DHT22;15515;45.588;5.276;2022-07-01T11:49:46;28.20;50.50
28253;DHT22;15515;45.588;5.276;2022-07-01T11:52:16;29.00;49.20
28253;DHT22;15515;45.588;5.276;2022-07-01T11:54:54;29.40;47.80
28253;DHT22;15515;45.588;5.276;2022-07-01T11:57:29;29.60;46.70
28253;DHT22;15515;45.588;5.276;2022-07-01T11:59:56;29.40;47.30
28253;DHT22;15515;45.588;5.276;2022-07-01T12:02:24;29.10;47.20
28253;DHT22;15515;45.588;5.276;2022-07-01T12:04:51;29.00;47.10
28253;DHT22;15515;45.588;5.276;2022-07-01T12:07:21;28.90;47.30
28253;DHT22;15515;45.588;5.276;2022-07-01T12:09:48;28.90;47.30
28253;DHT22;15515;45.588;5.276;2022-07-01T12:12:20;29.20;47.40
28253;DHT22;15515;45.588;5.276;2022-07-01T12:14:54;29.30;46.10
28253;DHT22;15515;45.588;5.276;2022-07-01T12:17:21;29.70;47.20
28253;DHT22;15515;45.588;5.276;2022-07-01T12:19:52;30.30;45.80
28253;DHT22;15515;45.588;5.276;2022-07-01T12:22:22;30.50;45.30
28253;DHT22;15515;45.588;5.276;2022-07-01T12:25:08;29.60;45.40
28253;DHT22;15515;45.588;5.276;2022-07-01T12:27:36;29.00;46.80
28253;DHT22;15515;45.588;5.276;2022-07-01T12:30:07;29.90;46.40
28253;DHT22;15515;45.588;5.276;2022-07-01T12:32:36;30.30;45.00
28253;DHT22;15515;45.588;5.276;2022-07-01T12:35:06;31.00;44.30
28253;DHT22;15515;45.588;5.276;2022-07-01T12:37:53;30.10;45.40
28253;DHT22;15515;45.588;5.276;2022-07-01T12:40:26;30.10;46.10
28253;DHT22;15515;45.588;5.276;2022-07-01T12:42:55;30.80;44.10
28253;DHT22;15515;45.588;5.276;2022-07-01T12:45:24;31.10;42.80
28253;DHT22;15515;45.588;5.276;2022-07-01T12:47:56;31.20;42.50
28253;DHT22;15515;45.588;5.276;2022-07-01T12:50:30;31.50;41.80
28253;DHT22;15515;45.588;5.276;2022-07-01T12:53:11;30.70;42.50
28253;DHT22;15515;45.588;5.276;2022-07-01T12:55:40;29.30;45.00
28253;DHT22;15515;45.588;5.276;2022-07-01T12:58:10;28.90;45.20
28253;DHT22;15515;45.588;5.276;2022-07-01T13:00:39;29.60;43.90
28253;DHT22;15515;45.588;5.276;2022-07-01T13:03:06;30.70;41.80
28253;DHT22;15515;45.588;5.276;2022-07-01T13:05:35;31.90;40.50
28253;DHT22;15515;45.588;5.276;2022-07-01T13:08:03;32.80;39.10
28253;DHT22;15515;45.588;5.276;2022-07-01T13:10:31;32.10;39.90
28253;DHT22;15515;45.588;5.276;2022-07-01T13:12:58;32.20;40.00
28253;DHT22;15515;45.588;5.276;2022-07-01T13:15:26;32.80;38.80
28253;DHT22;15515;45.588;5.276;2022-07-01T13:17:53;33.30;37.80
28253;DHT22;15515;45.588;5.276;2022-07-01T13:20:21;33.50;37.50
28253;DHT22;15515;45.588;5.276;2022-07-01T13:22:48;32.90;38.00
28253;DHT22;15515;45.588;5.276;2022-07-01T13:25:16;33.10;37.70
28253;DHT22;15515;45.588;5.276;2022-07-01T13:27:43;33.30;37.70
28253;DHT22;15515;45.588;5.276;2022-07-01T13:30:12;33.00;37.70
28253;DHT22;15515;45.588;5.276;2022-07-01T13:32:39;33.60;37.10
28253;DHT22;15515;45.588;5.276;2022-07-01T13:35:12;33.30;36.70
28253;DHT22;15515;45.588;5.276;2022-07-01T13:37:40;32.20;39.30
28253;DHT22;15515;45.588;5.276;2022-07-01T13:40:07;32.50;39.30
28253;DHT22;15515;45.588;5.276;2022-07-01T13:42:35;32.20;38.70
28253;DHT22;15515;45.588;5.276;2022-07-01T13:45:04;31.10;41.40
28253;DHT22;15515;45.588;5.276;2022-07-01T13:47:31;32.00;40.30
28253;DHT22;15515;45.588;5.276;2022-07-01T13:49:58;32.60;38.30
28253;DHT22;15515;45.588;5.276;2022-07-01T13:52:26;33.50;37.00
28253;DHT22;15515;45.588;5.276;2022-07-01T13:54:58;34.10;36.20
28253;DHT22;15515;45.588;5.276;2022-07-01T13:57:26;34.10;35.80
28253;DHT22;15515;45.588;5.276;2022-07-01T13:59:53;34.20;34.90
28253;DHT22;15515;45.588;5.276;2022-07-01T14:02:21;35.30;34.20
28253;DHT22;15515;45.588;5.276;2022-07-01T14:04:48;35.10;32.90
28253;DHT22;15515;45.588;5.276;2022-07-01T14:07:15;34.90;33.50
28253;DHT22;15515;45.588;5.276;2022-07-01T14:09:42;35.30;33.40
28253;DHT22;15515;45.588;5.276;2022-07-01T14:12:11;35.20;32.90
28253;DHT22;15515;45.588;5.276;2022-07-01T14:14:42;35.50;32.30
28253;DHT22;15515;45.588;5.276;2022-07-01T14:17:09;35.40;32.60
28253;DHT22;15515;45.588;5.276;2022-07-01T14:19:36;35.60;32.00
28253;DHT22;15515;45.588;5.276;2022-07-01T14:22:04;35.00;32.80
28253;DHT22;15515;45.588;5.276;2022-07-01T14:24:31;33.90;35.60
28253;DHT22;15515;45.588;5.276;2022-07-01T14:26:58;33.00;37.20
28253;DHT22;15515;45.588;5.276;2022-07-01T14:29:25;34.00;34.30
28253;DHT22;15515;45.588;5.276;2022-07-01T14:31:53;35.30;32.10
28253;DHT22;15515;45.588;5.276;2022-07-01T14:34:20;35.90;30.80
28253;DHT22;15515;45.588;5.276;2022-07-01T14:36:47;35.90;30.70
28253;DHT22;15515;45.588;5.276;2022-07-01T14:39:15;35.90;30.50
28253;DHT22;15515;45.588;5.276;2022-07-01T14:41:42;36.30;31.00
28253;DHT22;15515;45.588;5.276;2022-07-01T14:44:09;36.80;30.00
28253;DHT22;15515;45.588;5.276;2022-07-01T14:46:36;37.20;29.90
28253;DHT22;15515;45.588;5.276;2022-07-01T14:49:03;37.00;29.40
28253;DHT22;15515;45.588;5.276;2022-07-01T14:51:30;37.40;29.80
28253;DHT22;15515;45.588;5.276;2022-07-01T14:53:57;36.50;30.50
28253;DHT22;15515;45.588;5.276;2022-07-01T14:56:24;36.50;30.40
28253;DHT22;15515;45.588;5.276;2022-07-01T14:58:51;36.60;30.60
28253;DHT22;15515;45.588;5.276;2022-07-01T15:01:18;37.80;29.80
28253;DHT22;15515;45.588;5.276;2022-07-01T15:03:45;38.10;29.10
28253;DHT22;15515;45.588;5.276;2022-07-01T15:06:12;37.60;29.20
28253;DHT22;15515;45.588;5.276;2022-07-01T15:08:39;37.50;29.40
28253;DHT22;15515;45.588;5.276;2022-07-01T15:11:08;38.00;29.30
28253;DHT22;15515;45.588;5.276;2022-07-01T15:13:35;38.50;29.30
28253;DHT22;15515;45.588;5.276;2022-07-01T15:16:03;37.90;29.10
28253;DHT22;15515;45.588;5.276;2022-07-01T15:18:30;36.90;30.20
28253;DHT22;15515;45.588;5.276;2022-07-01T15:20:59;34.10;34.50
28253;DHT22;15515;45.588;5.276;2022-07-01T15:23:27;30.90;39.00
28253;DHT22;15515;45.588;5.276;2022-07-01T15:25:56;29.40;43.00
28253;DHT22;15515;45.588;5.276;2022-07-01T15:28:23;28.50;44.80
28253;DHT22;15515;45.588;5.276;2022-07-01T15:30:51;28.00;46.20
28253;DHT22;15515;45.588;5.276;2022-07-01T15:33:19;27.50;46.70
28253;DHT22;15515;45.588;5.276;2022-07-01T15:35:46;27.00;47.70
28253;DHT22;15515;45.588;5.276;2022-07-01T15:38:13;26.70;48.20
28253;DHT22;15515;45.588;5.276;2022-07-01T15:40:40;26.50;49.20
28253;DHT22;15515;45.588;5.276;2022-07-01T15:43:07;26.10;49.80
28253;DHT22;15515;45.588;5.276;2022-07-01T15:45:35;25.90;50.50
28253;DHT22;15515;45.588;5.276;2022-07-01T15:48:02;25.90;50.60
28253;DHT22;15515;45.588;5.276;2022-07-01T15:50:33;25.80;50.80
28253;DHT22;15515;45.588;5.276;2022-07-01T15:53:01;25.70;50.70
28253;DHT22;15515;45.588;5.276;2022-07-01T15:55:28;25.70;51.50
28253;DHT22;15515;45.588;5.276;2022-07-01T15:57:55;25.70;51.50
28253;DHT22;15515;45.588;5.276;2022-07-01T16:00:23;25.60;51.80
28253;DHT22;15515;45.588;5.276;2022-07-01T16:02:50;25.50;51.80
28253;DHT22;15515;45.588;5.276;2022-07-01T16:05:17;25.40;51.80
28253;DHT22;15515;45.588;5.276;2022-07-01T16:07:45;25.40;51.90
28253;DHT22;15515;45.588;5.276;2022-07-01T16:13:10;25.20;52.40
28253;DHT22;15515;45.588;5.276;2022-07-01T16:15:39;25.10;52.50
28253;DHT22;15515;45.588;5.276;2022-07-01T16:18:08;25.10;52.70
28253;DHT22;15515;45.588;5.276;2022-07-01T16:20:47;25.20;52.90
28253;DHT22;15515;45.588;5.276;2022-07-01T16:23:23;25.10;53.00
28253;DHT22;15515;45.588;5.276;2022-07-01T16:25:52;25.00;53.00
28253;DHT22;15515;45.588;5.276;2022-07-01T16:28:20;24.90;53.20
28253;DHT22;15515;45.588;5.276;2022-07-01T16:30:48;24.80;53.30
28253;DHT22;15515;45.588;5.276;2022-07-01T16:33:15;24.80;53.70
28253;DHT22;15515;45.588;5.276;2022-07-01T16:38:12;24.80;53.80
28253;DHT22;15515;45.588;5.276;2022-07-01T16:40:45;24.80;53.80
28253;DHT22;15515;45.588;5.276;2022-07-01T16:43:17;24.80;53.80
28253;DHT22;15515;45.588;5.276;2022-07-01T16:45:50;24.80;53.90
28253;DHT22;15515;45.588;5.276;2022-07-01T16:48:25;24.80;54.60
28253;DHT22;15515;45.588;5.276;2022-07-01T16:50:52;24.80;54.20
28253;DHT22;15515;45.588;5.276;2022-07-01T16:53:22;24.70;54.30
28253;DHT22;15515;45.588;5.276;2022-07-01T16:55:52;24.70;54.60
28253;DHT22;15515;45.588;5.276;2022-07-01T16:58:21;24.70;54.60
28253;DHT22;15515;45.588;5.276;2022-07-01T17:00:49;24.60;54.80
28253;DHT22;15515;45.588;5.276;2022-07-01T17:03:17;24.70;54.70
28253;DHT22;15515;45.588;5.276;2022-07-01T17:05:46;24.60;54.20
28253;DHT22;15515;45.588;5.276;2022-07-01T17:08:16;24.50;54.20
28253;DHT22;15515;45.588;5.276;2022-07-01T17:10:45;24.40;54.30
28253;DHT22;15515;45.588;5.276;2022-07-01T17:13:14;24.40;54.60
28253;DHT22;15515;45.588;5.276;2022-07-01T17:15:41;24.30;54.80
28253;DHT22;15515;45.588;5.276;2022-07-01T17:18:08;24.40;54.80
28253;DHT22;15515;45.588;5.276;2022-07-01T17:20:36;24.30;54.70
28253;DHT22;15515;45.588;5.276;2022-07-01T17:23:24;24.30;54.90
28253;DHT22;15515;45.588;5.276;2022-07-01T17:25:56;24.30;55.00
28253;DHT22;15515;45.588;5.276;2022-07-01T17:33:44;24.30;54.90
28253;DHT22;15515;45.588;5.276;2022-07-01T17:36:18;24.30;55.50
28253;DHT22;15515;45.588;5.276;2022-07-01T17:41:39;24.30;55.80
28253;DHT22;15515;45.588;5.276;2022-07-01T17:44:08;24.20;55.70
28253;DHT22;15515;45.588;5.276;2022-07-01T17:46:36;24.20;55.50
28253;DHT22;15515;45.588;5.276;2022-07-01T17:49:06;24.20;55.60
28253;DHT22;15515;45.588;5.276;2022-07-01T17:51:34;24.20;55.40
28253;DHT22;15515;45.588;5.276;2022-07-01T17:54:01;24.20;55.40
28253;DHT22;15515;45.588;5.276;2022-07-01T17:56:28;24.20;55.70
28253;DHT22;15515;45.588;5.276;2022-07-01T17:59:01;24.10;55.60
28253;DHT22;15515;45.588;5.276;2022-07-01T18:01:34;24.20;55.90
28253;DHT22;15515;45.588;5.276;2022-07-01T18:04:03;24.10;56.10
28253;DHT22;15515;45.588;5.276;2022-07-01T18:06:31;24.10;56.20
28253;DHT22;15515;45.588;5.276;2022-07-01T18:09:01;24.10;56.60
28253;DHT22;15515;45.588;5.276;2022-07-01T18:14:15;24.10;56.20
28253;DHT22;15515;45.588;5.276;2022-07-01T18:22:48;24.00;55.50
28253;DHT22;15515;45.588;5.276;2022-07-01T18:25:23;23.90;55.40
28253;DHT22;15515;45.588;5.276;2022-07-01T18:27:55;23.80;55.70
28253;DHT22;15515;45.588;5.276;2022-07-01T18:30:24;23.80;56.30
28253;DHT22;15515;45.588;5.276;2022-07-01T18:33:04;23.90;56.50
28253;DHT22;15515;45.588;5.276;2022-07-01T18:35:33;23.80;56.30
28253;DHT22;15515;45.588;5.276;2022-07-01T18:38:00;23.80;57.10
28253;DHT22;15515;45.588;5.276;2022-07-01T18:40:29;23.80;57.30
28253;DHT22;15515;45.588;5.276;2022-07-01T18:42:58;23.70;57.20
28253;DHT22;15515;45.588;5.276;2022-07-01T18:45:25;23.70;57.80
28253;DHT22;15515;45.588;5.276;2022-07-01T18:47:52;23.70;57.60
28253;DHT22;15515;45.588;5.276;2022-07-01T18:50:22;23.70;57.80
28253;DHT22;15515;45.588;5.276;2022-07-01T18:52:49;23.60;57.40
28253;DHT22;15515;45.588;5.276;2022-07-01T18:55:17;23.50;57.50
28253;DHT22;15515;45.588;5.276;2022-07-01T18:57:46;23.50;58.00
28253;DHT22;15515;45.588;5.276;2022-07-01T19:00:16;23.50;58.70
28253;DHT22;15515;45.588;5.276;2022-07-01T19:02:44;23.50;58.00
28253;DHT22;15515;45.588;5.276;2022-07-01T19:05:12;23.50;58.10
28253;DHT22;15515;45.588;5.276;2022-07-01T19:07:39;23.40;58.10
28253;DHT22;15515;45.588;5.276;2022-07-01T19:10:07;23.40;57.90
28253;DHT22;15515;45.588;5.276;2022-07-01T19:12:35;23.40;58.10
28253;DHT22;15515;45.588;5.276;2022-07-01T19:15:06;23.40;58.10
28253;DHT22;15515;45.588;5.276;2022-07-01T19:17:34;23.30;57.60
28253;DHT22;15515;45.588;5.276;2022-07-01T19:20:02;23.20;57.90
28253;DHT22;15515;45.588;5.276;2022-07-01T19:22:31;23.20;58.10
28253;DHT22;15515;45.588;5.276;2022-07-01T19:24:59;23.20;58.40
28253;DHT22;15515;45.588;5.276;2022-07-01T19:27:26;23.10;58.40
28253;DHT22;15515;45.588;5.276;2022-07-01T19:29:53;23.10;58.30
28253;DHT22;15515;45.588;5.276;2022-07-01T19:32:21;23.00;58.20
28253;DHT22;15515;45.588;5.276;2022-07-01T19:34:48;22.90;58.40
28253;DHT22;15515;45.588;5.276;2022-07-01T19:37:15;22.90;58.20
28253;DHT22;15515;45.588;5.276;2022-07-01T19:39:43;22.90;58.50
28253;DHT22;15515;45.588;5.276;2022-07-01T19:42:10;22.80;58.50
28253;DHT22;15515;45.588;5.276;2022-07-01T19:44:38;22.80;58.70
28253;DHT22;15515;45.588;5.276;2022-07-01T19:47:05;22.70;59.00
28253;DHT22;15515;45.588;5.276;2022-07-01T19:49:32;22.60;58.70
28253;DHT22;15515;45.588;5.276;2022-07-01T19:51:59;22.60;59.00
28253;DHT22;15515;45.588;5.276;2022-07-01T19:54:28;22.60;59.40
28253;DHT22;15515;45.588;5.276;2022-07-01T19:56:56;22.60;59.80
28253;DHT22;15515;45.588;5.276;2022-07-01T19:59:24;22.50;59.70
28253;DHT22;15515;45.588;5.276;2022-07-01T20:01:52;22.40;59.60
28253;DHT22;15515;45.588;5.276;2022-07-01T20:04:20;22.40;59.90
28253;DHT22;15515;45.588;5.276;2022-07-01T20:06:49;22.30;60.50
28253;DHT22;15515;45.588;5.276;2022-07-01T20:09:32;22.30;60.70
28253;DHT22;15515;45.588;5.276;2022-07-01T20:12:15;22.20;61.40
28253;DHT22;15515;45.588;5.276;2022-07-01T20:15:04;22.10;61.30
28253;DHT22;15515;45.588;5.276;2022-07-01T20:17:47;22.00;61.40
28253;DHT22;15515;45.588;5.276;2022-07-01T20:20:35;22.00;61.80
28253;DHT22;15515;45.588;5.276;2022-07-01T20:23:10;21.90;61.70
28253;DHT22;15515;45.588;5.276;2022-07-01T20:25:43;21.80;62.30
28253;DHT22;15515;45.588;5.276;2022-07-01T20:28:25;21.80;62.70
28253;DHT22;15515;45.588;5.276;2022-07-01T20:30:54;21.80;62.70
28253;DHT22;15515;45.588;5.276;2022-07-01T20:33:38;21.80;62.50
28253;DHT22;15515;45.588;5.276;2022-07-01T20:36:20;21.70;62.60
28253;DHT22;15515;45.588;5.276;2022-07-01T20:38:48;21.70;62.80
28253;DHT22;15515;45.588;5.276;2022-07-01T20:41:35;21.60;63.10
28253;DHT22;15515;45.588;5.276;2022-07-01T20:44:05;21.50;63.50
28253;DHT22;15515;45.588;5.276;2022-07-01T20:46:50;21.40;63.00
28253;DHT22;15515;45.588;5.276;2022-07-01T20:49:19;21.50;63.60
28253;DHT22;15515;45.588;5.276;2022-07-01T20:52:02;21.40;63.60
28253;DHT22;15515;45.588;5.276;2022-07-01T20:54:31;21.40;63.80
28253;DHT22;15515;45.588;5.276;2022-07-01T20:57:07;21.40;64.20
28253;DHT22;15515;45.588;5.276;2022-07-01T20:59:49;21.40;64.30
28253;DHT22;15515;45.588;5.276;2022-07-01T21:02:30;21.40;64.40
28253;DHT22;15515;45.588;5.276;2022-07-01T21:05:10;21.40;64.60
28253;DHT22;15515;45.588;5.276;2022-07-01T21:08:03;21.40;64.70
28253;DHT22;15515;45.588;5.276;2022-07-01T21:21:38;21.10;65.10
28253;DHT22;15515;45.588;5.276;2022-07-01T21:34:19;21.00;65.60
28253;DHT22;15515;45.588;5.276;2022-07-01T21:37:17;21.00;65.80
28253;DHT22;15515;45.588;5.276;2022-07-01T21:49:21;20.90;66.40
28253;DHT22;15515;45.588;5.276;2022-07-01T21:52:41;20.80;66.40
28253;DHT22;15515;45.588;5.276;2022-07-01T21:56:32;20.70;66.70